createdAt,value
2019-05-07T00:02:02.962Z,99.90
2019-05-07T00:04:33.213Z,99.90
2019-05-07T00:07:02.394Z,99.90
2019-05-07T00:09:32.324Z,99.90
2019-05-07T00:12:04.684Z,99.90
2019-05-07T00:14:31.999Z,99.90
2019-05-07T00:17:02.253Z,99.90
2019-05-07T00:19:32.451Z,99.90
2019-05-07T00:22:02.413Z,99.90
2019-05-07T00:24:32.969Z,99.90
2019-05-07T00:27:02.856Z,99.90
2019-05-07T00:29:32.170Z,99.90
2019-05-07T00:32:02.739Z,99.90
2019-05-07T00:34:32.902Z,99.90
2019-05-07T00:37:08.803Z,99.90
2019-05-07T00:39:52.889Z,99.90
2019-05-07T00:42:23.020Z,99.90
2019-05-07T00:45:15.933Z,99.90
2019-05-07T00:47:33.011Z,99.90
2019-05-07T00:50:03.380Z,99.90
2019-05-07T00:52:33.516Z,99.90
2019-05-07T00:55:02.912Z,99.90
2019-05-07T00:57:32.390Z,99.90
2019-05-07T01:00:02.202Z,99.90
2019-05-07T01:02:32.373Z,99.90
2019-05-07T01:05:03.044Z,99.90
2019-05-07T01:07:32.442Z,99.90
2019-05-07T01:10:02.226Z,99.90
2019-05-07T01:12:32.865Z,99.90
2019-05-07T01:15:02.855Z,99.90
2019-05-07T01:17:33.334Z,99.90
2019-05-07T01:20:02.909Z,99.90
2019-05-07T01:22:33.071Z,99.90
2019-05-07T01:25:02.358Z,99.90
2019-05-07T01:27:32.170Z,99.90
2019-05-07T01:30:02.538Z,99.90
2019-05-07T01:32:38.511Z,99.90
2019-05-07T01:35:17.806Z,99.90
2019-05-07T01:37:46.204Z,99.90
2019-05-07T01:40:14.695Z,99.90
2019-05-07T01:42:43.082Z,99.90
2019-05-07T01:45:12.983Z,99.90
2019-05-07T01:47:42.471Z,99.90
2019-05-07T01:50:13.231Z,99.90
2019-05-07T01:52:42.727Z,99.90
2019-05-07T01:55:12.972Z,99.90
2019-05-07T01:57:42.109Z,99.90
2019-05-07T02:00:12.907Z,99.90
2019-05-07T02:02:42.677Z,99.90
2019-05-07T02:05:12.803Z,99.90
2019-05-07T02:07:43.019Z,99.90
2019-05-07T02:10:16.395Z,99.90
2019-05-07T02:12:44.802Z,99.90
2019-05-07T02:15:14.047Z,99.90
2019-05-07T02:17:42.982Z,99.90
2019-05-07T02:20:13.062Z,99.90
2019-05-07T02:22:42.726Z,99.90
2019-05-07T02:25:12.606Z,99.90
2019-05-07T02:27:42.068Z,99.90
2019-05-07T02:30:14.469Z,99.90
2019-05-07T02:32:43.227Z,99.90
2019-05-07T02:35:13.599Z,99.90
2019-05-07T02:37:51.170Z,99.90
2019-05-07T02:40:22.882Z,99.90
2019-05-07T02:42:54.065Z,99.90
2019-05-07T02:45:28.794Z,99.90
2019-05-07T02:47:57.244Z,99.90
2019-05-07T02:50:36.316Z,99.90
2019-05-07T02:53:08.838Z,99.90
2019-05-07T02:55:44.693Z,99.90
2019-05-07T02:58:13.734Z,99.90
2019-05-07T03:00:43.473Z,99.90
2019-05-07T03:03:13.741Z,99.90
2019-05-07T03:05:43.110Z,99.90
2019-05-07T03:08:13.651Z,99.90
2019-05-07T03:10:43.724Z,99.90
2019-05-07T03:13:13.796Z,99.90
2019-05-07T03:15:43.636Z,99.90
2019-05-07T03:18:13.892Z,99.90
2019-05-07T03:20:47.255Z,99.90
2019-05-07T03:23:17.303Z,99.90
2019-05-07T03:25:49.995Z,99.90
2019-05-07T03:28:19.613Z,99.90
2019-05-07T03:30:58.685Z,99.90
2019-05-07T03:33:28.753Z,99.90
2019-05-07T03:35:58.858Z,99.90
2019-05-07T03:38:27.278Z,99.90
2019-05-07T03:40:55.788Z,99.90
2019-05-07T03:43:25.875Z,99.90
2019-05-07T03:45:56.013Z,99.90
2019-05-07T03:48:26.346Z,99.90
2019-05-07T03:50:54.788Z,99.90
2019-05-07T03:53:23.574Z,99.90
2019-05-07T03:55:53.858Z,99.90
2019-05-07T03:58:23.550Z,99.90
2019-05-07T04:00:53.676Z,99.90
2019-05-07T04:03:24.384Z,99.90
2019-05-07T04:05:53.339Z,99.90
2019-05-07T04:08:23.593Z,99.90
2019-05-07T04:10:53.797Z,99.90
2019-05-07T04:13:24.006Z,99.90
2019-05-07T04:15:52.720Z,99.90
2019-05-07T04:18:23.654Z,99.90
2019-05-07T04:20:54.001Z,99.90
2019-05-07T04:23:23.355Z,99.90
2019-05-07T04:25:56.239Z,99.90
2019-05-07T04:28:43.592Z,99.90
2019-05-07T04:31:14.110Z,99.90
2019-05-07T04:33:43.966Z,99.90
2019-05-07T04:36:14.391Z,99.90
2019-05-07T04:38:43.928Z,99.90
2019-05-07T04:41:13.810Z,99.90
2019-05-07T04:43:43.508Z,99.90
2019-05-07T04:46:14.489Z,99.90
2019-05-07T04:48:43.934Z,99.90
2019-05-07T04:51:14.245Z,99.90
2019-05-07T04:53:43.053Z,99.90
2019-05-07T04:56:14.081Z,99.90
2019-05-07T04:58:43.388Z,99.90
2019-05-07T05:01:14.076Z,99.90
2019-05-07T05:03:43.683Z,99.90
2019-05-07T05:06:13.677Z,99.90
2019-05-07T05:08:43.512Z,99.90
2019-05-07T05:11:12.807Z,99.90
2019-05-07T05:13:44.380Z,99.90
2019-05-07T05:16:26.898Z,99.90
2019-05-07T05:18:56.443Z,99.90
2019-05-07T05:21:44.647Z,99.90
2019-05-07T05:24:17.702Z,99.90
2019-05-07T05:26:46.119Z,99.90
2019-05-07T05:29:14.606Z,99.90
2019-05-07T05:31:43.005Z,99.90
2019-05-07T05:34:13.027Z,99.90
2019-05-07T05:36:42.567Z,99.90
2019-05-07T05:39:13.190Z,99.90
2019-05-07T05:41:43.735Z,99.90
2019-05-07T05:44:25.949Z,99.90
2019-05-07T05:46:54.379Z,99.90
2019-05-07T05:49:23.059Z,99.90
2019-05-07T05:51:55.974Z,99.90
2019-05-07T05:54:26.039Z,99.90
2019-05-07T05:56:56.356Z,99.90
2019-05-07T05:59:44.975Z,99.90
2019-05-07T06:02:12.808Z,99.90
2019-05-07T06:04:59.085Z,99.90
2019-05-07T06:07:32.071Z,99.90
2019-05-07T06:10:07.905Z,99.90
2019-05-07T06:12:42.868Z,99.90
2019-05-07T06:15:16.249Z,99.90
2019-05-07T06:17:46.286Z,99.90
2019-05-07T06:20:22.951Z,99.90
2019-05-07T06:23:08.972Z,99.20
2019-05-07T06:25:37.659Z,99.00
2019-05-07T06:28:06.050Z,98.80
2019-05-07T06:30:34.459Z,98.20
2019-05-07T06:33:03.165Z,98.10
2019-05-07T06:35:32.460Z,97.80
2019-05-07T06:38:02.864Z,97.50
2019-05-07T06:40:38.979Z,97.60
2019-05-07T06:43:09.018Z,97.10
2019-05-07T06:45:45.054Z,97.00
2019-05-07T06:48:13.459Z,96.60
2019-05-07T06:50:43.566Z,96.30
2019-05-07T06:53:12.173Z,95.50
2019-05-07T06:55:42.731Z,94.90
2019-05-07T06:58:12.272Z,95.10
2019-05-07T07:00:42.596Z,95.20
2019-05-07T07:03:12.811Z,95.10
2019-05-07T07:05:42.854Z,94.90
2019-05-07T07:08:24.939Z,94.40
2019-05-07T07:11:02.638Z,94.40
2019-05-07T07:13:32.152Z,94.20
2019-05-07T07:16:01.930Z,94.20
2019-05-07T07:18:32.304Z,93.90
2019-05-07T07:21:02.250Z,93.80
2019-05-07T07:23:32.439Z,93.40
2019-05-07T07:26:03.111Z,93.00
2019-05-07T07:28:32.647Z,93.60
2019-05-07T07:31:19.761Z,93.40
2019-05-07T07:33:52.695Z,93.20
2019-05-07T07:36:22.912Z,93.30
2019-05-07T07:38:52.747Z,93.50
2019-05-07T07:44:13.338Z,92.70
2019-05-07T07:46:42.496Z,92.30
2019-05-07T07:49:14.751Z,92.50
2019-05-07T07:51:45.086Z,92.80
2019-05-07T07:54:13.144Z,92.70
2019-05-07T07:56:55.734Z,92.20
2019-05-07T07:59:33.059Z,92.20
2019-05-07T08:02:03.126Z,91.70
2019-05-07T08:04:32.110Z,91.50
2019-05-07T08:07:03.435Z,91.30
2019-05-07T08:09:34.214Z,91.60
2019-05-07T08:12:03.594Z,91.20
2019-05-07T08:14:32.694Z,91.10
2019-05-07T08:17:02.891Z,90.20
2019-05-07T08:19:32.735Z,90.90
2019-05-07T08:22:02.769Z,90.60
2019-05-07T08:24:32.209Z,90.40
2019-05-07T08:27:02.434Z,89.20
2019-05-07T08:29:32.596Z,89.30
2019-05-07T08:32:12.658Z,87.30
2019-05-07T08:34:48.942Z,86.00
2019-05-07T08:37:17.444Z,85.30
2019-05-07T08:39:45.839Z,86.10
2019-05-07T08:42:14.266Z,85.70
2019-05-07T08:44:46.869Z,82.60
2019-05-07T08:47:22.918Z,82.60
2019-05-07T08:49:52.377Z,78.80
2019-05-07T08:52:22.389Z,78.20
2019-05-07T08:54:51.879Z,77.90
2019-05-07T08:57:22.587Z,72.90
2019-05-07T08:59:58.473Z,70.90
2019-05-07T09:02:22.263Z,70.00
2019-05-07T09:04:52.297Z,70.00
2019-05-07T09:07:21.844Z,66.10
2019-05-07T09:09:52.317Z,63.90
2019-05-07T09:12:22.751Z,63.60
2019-05-07T09:14:52.836Z,64.10
2019-05-07T09:17:22.878Z,62.90
2019-05-07T09:19:54.061Z,61.70
2019-05-07T09:22:22.974Z,62.10
2019-05-07T09:24:52.664Z,61.40
2019-05-07T09:27:32.800Z,59.90
2019-05-07T09:30:02.994Z,57.40
2019-05-07T09:32:33.035Z,55.70
2019-05-07T09:35:03.078Z,54.10
2019-05-07T09:37:32.727Z,51.70
2019-05-07T09:40:02.764Z,52.10
2019-05-07T09:42:33.217Z,51.10
2019-05-07T09:45:01.980Z,49.60
2019-05-07T09:47:32.551Z,48.30
2019-05-07T09:50:05.560Z,47.40
2019-05-07T09:52:32.136Z,48.30
2019-05-07T09:55:11.036Z,47.20
2019-05-07T09:57:32.457Z,45.50
2019-05-07T10:00:02.216Z,43.40
2019-05-07T10:02:32.056Z,42.20
2019-05-07T10:05:02.421Z,43.10
2019-05-07T10:07:32.489Z,43.10
2019-05-07T10:10:03.209Z,41.00
2019-05-07T10:12:44.985Z,40.30
2019-05-07T10:15:13.731Z,41.40
2019-05-07T10:17:46.526Z,41.70
2019-05-07T10:20:22.049Z,41.10
2019-05-07T10:22:46.943Z,39.80
2019-05-07T10:25:15.596Z,40.80
2019-05-07T10:27:44.126Z,40.20
2019-05-07T10:30:12.979Z,40.50
2019-05-07T10:32:42.495Z,40.30
2019-05-07T10:35:12.980Z,40.40
2019-05-07T10:37:42.251Z,40.30
2019-05-07T10:40:12.363Z,40.40
2019-05-07T10:42:42.950Z,40.60
2019-05-07T10:45:13.096Z,40.30
2019-05-07T10:47:46.022Z,38.40
2019-05-07T10:50:16.511Z,37.50
2019-05-07T10:52:44.909Z,37.70
2019-05-07T10:55:13.746Z,39.40
2019-05-07T10:57:42.381Z,38.70
2019-05-07T11:00:13.961Z,39.30
2019-05-07T11:02:42.686Z,38.40
2019-05-07T11:05:13.003Z,39.20
2019-05-07T11:07:42.185Z,40.20
2019-05-07T11:10:12.412Z,40.00
2019-05-07T11:12:42.439Z,39.10
2019-05-07T11:15:12.678Z,38.80
2019-05-07T11:17:48.761Z,38.60
2019-05-07T11:20:17.615Z,38.40
2019-05-07T11:22:46.076Z,39.30
2019-05-07T11:25:14.631Z,38.80
2019-05-07T11:27:43.023Z,39.10
2019-05-07T11:30:12.550Z,38.20
2019-05-07T11:32:42.878Z,38.70
2019-05-07T11:35:14.673Z,38.20
2019-05-07T11:37:44.269Z,37.80
2019-05-07T11:40:13.581Z,39.00
2019-05-07T11:42:58.360Z,38.30
2019-05-07T11:45:28.401Z,39.80
2019-05-07T11:47:56.799Z,38.40
2019-05-07T11:50:29.572Z,37.70
2019-05-07T11:52:59.665Z,37.40
2019-05-07T11:55:28.083Z,38.10
2019-05-07T11:57:56.486Z,37.90
2019-05-07T12:00:29.334Z,38.40
2019-05-07T12:02:57.731Z,39.80
2019-05-07T12:05:26.134Z,38.70
2019-05-07T12:07:54.543Z,40.30
2019-05-07T12:10:22.926Z,38.90
2019-05-07T12:12:52.107Z,39.50
2019-05-07T12:15:21.716Z,40.80
2019-05-07T12:17:52.158Z,39.00
2019-05-07T12:20:21.831Z,39.20
2019-05-07T12:22:52.150Z,39.10
2019-05-07T12:25:21.455Z,38.40
2019-05-07T12:27:52.109Z,38.30
2019-05-07T12:30:42.841Z,39.70
2019-05-07T12:33:25.081Z,39.50
2019-05-07T12:35:53.481Z,38.10
2019-05-07T12:38:22.042Z,38.90
2019-05-07T12:40:52.256Z,38.40
2019-05-07T12:43:20.634Z,38.50
2019-05-07T12:45:49.025Z,37.80
2019-05-07T12:48:17.436Z,38.20
2019-05-07T12:50:45.877Z,37.60
2019-05-07T12:53:15.924Z,37.80
2019-05-07T12:55:54.975Z,37.90
2019-05-07T12:58:23.391Z,38.00
2019-05-07T13:00:59.296Z,37.80
2019-05-07T13:03:29.347Z,37.80
2019-05-07T13:05:57.742Z,37.80
2019-05-07T13:08:26.142Z,37.70
2019-05-07T13:10:54.549Z,37.60
2019-05-07T13:13:23.035Z,37.10
2019-05-07T13:15:51.895Z,36.10
2019-05-07T13:18:22.514Z,36.30
2019-05-07T13:20:51.927Z,36.10
2019-05-07T13:23:22.481Z,36.40
2019-05-07T13:25:52.236Z,36.10
2019-05-07T13:28:20.921Z,35.90
2019-05-07T13:30:49.334Z,35.50
2019-05-07T13:33:18.494Z,34.70
2019-05-07T13:35:47.632Z,34.50
2019-05-07T13:38:21.354Z,34.60
2019-05-07T13:40:53.219Z,34.50
2019-05-07T13:43:32.381Z,35.90
2019-05-07T13:46:02.631Z,36.20
2019-05-07T13:48:31.731Z,35.40
2019-05-07T13:51:01.781Z,35.30
2019-05-07T13:53:32.137Z,35.60
2019-05-07T13:56:02.265Z,36.00
2019-05-07T13:58:32.751Z,35.00
2019-05-07T14:01:04.923Z,35.00
2019-05-07T14:03:33.074Z,35.60
2019-05-07T14:06:04.415Z,35.40
2019-05-07T14:08:33.735Z,35.00
2019-05-07T14:11:02.750Z,34.60
2019-05-07T14:13:31.299Z,35.00
2019-05-07T14:16:11.876Z,34.90
2019-05-07T14:18:39.836Z,35.30
2019-05-07T14:21:08.497Z,35.70
2019-05-07T14:23:37.271Z,34.50
2019-05-07T14:26:05.942Z,35.20
2019-05-07T14:28:34.411Z,35.00
2019-05-07T14:31:02.955Z,34.60
2019-05-07T14:33:53.913Z,35.10
2019-05-07T14:36:32.194Z,34.90
2019-05-07T14:39:02.347Z,35.50
2019-05-07T14:41:32.524Z,33.40
2019-05-07T14:44:02.797Z,33.00
2019-05-07T14:46:43.989Z,33.90
2019-05-07T14:49:02.757Z,33.30
2019-05-07T14:51:32.607Z,33.60
2019-05-07T14:54:01.786Z,32.50
2019-05-07T14:56:32.279Z,33.90
2019-05-07T14:59:02.316Z,32.90
2019-05-07T15:01:30.781Z,33.70
2019-05-07T15:03:59.234Z,33.30
2019-05-07T15:06:27.705Z,33.70
2019-05-07T15:08:56.341Z,33.30
2019-05-07T15:11:24.893Z,33.60
2019-05-07T15:13:53.282Z,33.70
2019-05-07T15:16:22.531Z,34.10
2019-05-07T15:18:53.122Z,33.50
2019-05-07T15:21:22.216Z,33.10
2019-05-07T15:23:52.872Z,34.20
2019-05-07T15:26:22.100Z,33.40
2019-05-07T15:28:52.266Z,34.00
2019-05-07T15:31:22.301Z,35.00
2019-05-07T15:33:52.276Z,33.80
2019-05-07T15:36:20.875Z,34.20
2019-05-07T15:38:49.286Z,34.20
2019-05-07T15:41:17.688Z,33.70
2019-05-07T15:43:46.350Z,33.80
2019-05-07T15:46:14.761Z,34.40
2019-05-07T15:48:43.158Z,34.10
2019-05-07T15:51:11.958Z,34.30
2019-05-07T15:53:52.108Z,35.90
2019-05-07T15:56:21.854Z,34.20
2019-05-07T15:58:51.762Z,34.60
2019-05-07T16:01:22.010Z,33.80
2019-05-07T16:03:54.342Z,32.70
2019-05-07T16:06:22.005Z,33.10
2019-05-07T16:08:54.628Z,31.90
2019-05-07T16:11:23.351Z,30.40
2019-05-07T16:14:05.202Z,30.30
2019-05-07T16:16:35.327Z,30.50
2019-05-07T16:19:15.306Z,30.10
2019-05-07T16:21:43.722Z,29.70
2019-05-07T16:24:12.274Z,31.40
2019-05-07T16:26:41.845Z,31.20
2019-05-07T16:29:12.981Z,30.70
2019-05-07T16:31:40.800Z,31.30
2019-05-07T16:34:09.188Z,31.70
2019-05-07T16:36:37.609Z,30.70
2019-05-07T16:39:07.542Z,30.90
2019-05-07T16:41:35.965Z,30.50
2019-05-07T16:44:04.883Z,31.30
2019-05-07T16:46:33.293Z,31.30
2019-05-07T16:49:02.289Z,32.10
2019-05-07T16:51:32.836Z,31.90
2019-05-07T16:54:03.211Z,32.00
2019-05-07T16:56:33.142Z,32.10
2019-05-07T16:59:07.610Z,32.40
2019-05-07T17:01:35.652Z,32.20
2019-05-07T17:04:04.907Z,32.80
2019-05-07T17:06:33.290Z,32.90
2019-05-07T17:09:09.255Z,32.70
2019-05-07T17:11:37.647Z,33.40
2019-05-07T17:14:06.049Z,33.10
2019-05-07T17:16:34.445Z,33.80
2019-05-07T17:19:02.853Z,33.00
2019-05-07T17:21:32.433Z,33.60
2019-05-07T17:24:02.540Z,33.40
2019-05-07T17:26:31.114Z,33.30
2019-05-07T17:28:59.527Z,33.30
2019-05-07T17:31:27.918Z,33.40
2019-05-07T17:33:56.327Z,32.80
2019-05-07T17:36:24.735Z,32.20
2019-05-07T17:38:53.143Z,32.40
2019-05-07T17:41:26.798Z,32.80
2019-05-07T17:43:52.068Z,32.80
2019-05-07T17:46:21.751Z,32.90
2019-05-07T17:48:52.223Z,32.60
2019-05-07T17:51:22.151Z,32.90
2019-05-07T17:53:59.639Z,33.40
2019-05-07T17:56:22.397Z,34.20
2019-05-07T17:58:52.231Z,34.60
2019-05-07T18:01:22.423Z,34.80
2019-05-07T18:03:52.010Z,35.50
2019-05-07T18:06:20.578Z,36.60
2019-05-07T18:08:49.012Z,36.70
2019-05-07T18:11:21.141Z,38.40
2019-05-07T18:13:47.607Z,39.90
2019-05-07T18:16:29.547Z,39.40
2019-05-07T18:18:58.019Z,41.80
2019-05-07T18:21:26.415Z,45.50
2019-05-07T18:23:54.828Z,48.00
2019-05-07T18:26:29.991Z,48.70
2019-05-07T18:28:53.419Z,49.00
2019-05-07T18:31:23.940Z,48.10
2019-05-07T18:33:53.994Z,48.30
2019-05-07T18:36:22.776Z,49.60
2019-05-07T18:38:52.853Z,50.90
2019-05-07T18:41:22.266Z,51.30
2019-05-07T18:43:54.395Z,51.10
2019-05-07T18:46:22.173Z,52.10
2019-05-07T18:48:51.869Z,52.40
2019-05-07T18:51:20.419Z,52.40
2019-05-07T18:53:48.817Z,53.90
2019-05-07T18:56:17.231Z,54.20
2019-05-07T18:58:45.636Z,55.80
2019-05-07T19:01:15.876Z,55.10
2019-05-07T19:03:44.565Z,56.40
2019-05-07T19:06:13.625Z,57.10
2019-05-07T19:08:42.383Z,59.50
2019-05-07T19:11:12.245Z,61.90
2019-05-07T19:13:42.047Z,65.10
2019-05-07T19:16:12.449Z,68.30
2019-05-07T19:18:42.971Z,71.10
2019-05-07T19:21:11.078Z,73.60
2019-05-07T19:23:39.511Z,77.20
2019-05-07T19:26:07.990Z,77.00
2019-05-07T19:28:36.461Z,77.20
2019-05-07T19:31:04.871Z,79.70
2019-05-07T19:33:33.273Z,81.30
2019-05-07T19:36:01.682Z,84.20
2019-05-07T19:38:32.184Z,85.80
2019-05-07T19:41:02.122Z,87.30
2019-05-07T19:43:32.376Z,89.00
2019-05-07T19:46:02.729Z,90.30
2019-05-07T19:48:32.314Z,90.90
2019-05-07T19:51:02.750Z,91.40
2019-05-07T19:53:32.750Z,91.50
2019-05-07T19:56:17.203Z,91.20
2019-05-07T19:58:45.657Z,91.00
2019-05-07T20:01:15.783Z,91.40
2019-05-07T20:03:44.178Z,90.80
2019-05-07T20:06:12.991Z,90.70
2019-05-07T20:08:43.704Z,91.20
2019-05-07T20:11:13.307Z,91.70
2019-05-07T20:13:43.787Z,92.10
2019-05-07T20:16:19.099Z,92.10
2019-05-07T20:18:47.777Z,91.90
2019-05-07T20:21:16.251Z,92.00
2019-05-07T20:23:44.663Z,92.40
2019-05-07T20:26:13.160Z,92.40
2019-05-07T20:28:41.843Z,92.60
2019-05-07T20:31:12.250Z,93.00
2019-05-07T20:33:42.220Z,92.80
2019-05-07T20:36:11.137Z,92.70
2019-05-07T20:38:39.594Z,92.70
2019-05-07T20:41:08.008Z,92.60
2019-05-07T20:43:36.393Z,92.40
2019-05-07T20:46:04.823Z,92.70
2019-05-07T20:48:33.203Z,92.90
2019-05-07T20:51:01.604Z,92.40
2019-05-07T20:53:48.209Z,92.00
2019-05-07T20:56:18.242Z,91.80
2019-05-07T20:58:46.658Z,91.50
2019-05-07T21:01:15.189Z,91.90
2019-05-07T21:03:43.603Z,92.00
2019-05-07T21:06:12.074Z,91.90
2019-05-07T21:08:42.637Z,91.60
2019-05-07T21:11:11.939Z,90.90
2019-05-07T21:13:44.085Z,90.60
2019-05-07T21:16:12.667Z,90.90
2019-05-07T21:18:42.141Z,91.20
2019-05-07T21:21:12.529Z,91.50
2019-05-07T21:23:43.192Z,90.90
2019-05-07T21:26:13.046Z,91.10
2019-05-07T21:28:43.253Z,90.90
2019-05-07T21:31:11.975Z,90.80
2019-05-07T21:33:42.713Z,91.20
2019-05-07T21:36:12.101Z,91.70
2019-05-07T21:38:42.603Z,91.70
2019-05-07T21:41:12.769Z,91.80
2019-05-07T21:43:45.621Z,91.30
2019-05-07T21:46:12.752Z,90.90
2019-05-07T21:48:41.478Z,90.70
2019-05-07T21:51:11.992Z,90.70
2019-05-07T21:53:42.955Z,90.80
2019-05-07T21:56:13.195Z,91.20
2019-05-07T21:58:46.095Z,91.40
2019-05-07T22:01:18.828Z,91.70
2019-05-07T22:03:48.881Z,91.50
2019-05-07T22:06:17.262Z,91.30
2019-05-07T22:08:45.661Z,91.30
2019-05-07T22:11:14.220Z,91.40
2019-05-07T22:13:43.522Z,90.90
2019-05-07T22:16:13.002Z,90.20
2019-05-07T22:18:42.766Z,90.00
2019-05-07T22:21:12.453Z,90.20
2019-05-07T22:23:42.877Z,90.40
2019-05-07T22:26:20.001Z,90.90
2019-05-07T22:28:42.132Z,90.80
2019-05-07T22:31:12.703Z,90.80
2019-05-07T22:33:59.413Z,91.30
2019-05-07T22:36:27.980Z,91.60
2019-05-07T22:38:56.481Z,91.10
2019-05-07T22:41:24.866Z,90.90
2019-05-07T22:43:53.273Z,90.60
2019-05-07T22:46:22.339Z,90.60
2019-05-07T22:48:50.885Z,90.40
2019-05-07T22:51:19.271Z,89.30
2019-05-07T22:53:47.686Z,88.10
2019-05-07T22:56:16.149Z,88.90
2019-05-07T22:58:49.267Z,88.50
2019-05-07T23:01:19.126Z,89.20
2019-05-07T23:03:47.531Z,89.20
2019-05-07T23:06:15.936Z,88.90
2019-05-07T23:08:44.347Z,89.10
2019-05-07T23:11:12.801Z,89.60
2019-05-07T23:13:42.663Z,89.40
2019-05-07T23:16:12.539Z,88.90
2019-05-07T23:18:42.954Z,89.20
2019-05-07T23:21:11.711Z,88.80
2019-05-07T23:23:42.211Z,89.10
2019-05-07T23:26:14.309Z,89.50
2019-05-07T23:28:41.865Z,89.30
2019-05-07T23:31:12.164Z,90.00
2019-05-07T23:33:40.745Z,90.00
2019-05-07T23:36:09.189Z,89.70
2019-05-07T23:38:37.601Z,89.50
2019-05-07T23:41:07.661Z,89.30
2019-05-07T23:43:36.066Z,89.20
2019-05-07T23:46:04.462Z,90.20
2019-05-07T23:48:32.867Z,90.20
2019-05-07T23:51:02.081Z,90.20
2019-05-07T23:53:30.832Z,90.40
2019-05-07T23:55:59.504Z,90.50
2019-05-07T23:58:27.919Z,91.10
